createdAt,value
2023-12-11T00:00:58.562Z,100681.16
2023-12-11T00:02:00.629Z,100678.88
2023-12-11T00:03:02.619Z,100675.19
2023-12-11T00:04:04.952Z,100678.47
2023-12-11T00:05:09.810Z,100675.50
2023-12-11T00:06:11.974Z,100682.50
2023-12-11T00:07:13.998Z,100688.34
2023-12-11T00:08:16.001Z,100682.50
2023-12-11T00:09:18.010Z,100670.97
2023-12-11T00:10:20.094Z,100667.53
2023-12-11T00:11:22.122Z,100671.50
2023-12-11T00:12:24.084Z,100668.53
2023-12-11T00:13:26.081Z,100665.97
2023-12-11T00:14:28.028Z,100665.81
2023-12-11T00:15:30.056Z,100659.31
2023-12-11T00:16:32.055Z,100661.03
2023-12-11T00:17:34.602Z,100656.75
2023-12-11T00:18:36.930Z,100657.34
2023-12-11T00:19:39.007Z,100656.09
2023-12-11T00:20:40.998Z,100653.13
2023-12-11T00:21:43.195Z,100657.41
2023-12-11T00:22:45.225Z,100648.84
2023-12-11T00:23:47.480Z,100651.16
2023-12-11T00:24:49.527Z,100641.06
2023-12-11T00:25:51.496Z,100643.03
2023-12-11T00:26:53.534Z,100646.88
2023-12-11T00:27:55.553Z,100649.31
2023-12-11T00:28:58.548Z,100651.34
2023-12-11T00:30:01.599Z,100652.06
2023-12-11T00:31:08.220Z,100654.75
2023-12-11T00:32:11.374Z,100654.03
2023-12-11T00:33:13.558Z,100646.34
2023-12-11T00:34:16.099Z,100656.41
2023-12-11T00:35:19.550Z,100656.28
2023-12-11T00:36:21.593Z,100649.31
2023-12-11T00:37:23.564Z,100653.72
2023-12-11T00:38:28.353Z,100654.69
2023-12-11T00:39:30.376Z,100653.13
2023-12-11T00:40:32.386Z,100648.97
2023-12-11T00:41:34.465Z,100643.84
2023-12-11T00:42:36.479Z,100645.41
2023-12-11T00:43:45.029Z,100641.72
2023-12-11T00:44:48.535Z,100640.47
2023-12-11T00:45:50.533Z,100640.47
2023-12-11T00:46:52.495Z,100647.72
2023-12-11T00:47:54.961Z,100641.34
2023-12-11T00:48:57.218Z,100642.78
2023-12-11T00:49:59.416Z,100641.78
2023-12-11T00:51:01.473Z,100641.19
2023-12-11T00:52:03.609Z,100647.59
2023-12-11T00:53:05.591Z,100645.88
2023-12-11T00:54:07.565Z,100647.47
2023-12-11T00:55:09.879Z,100642.78
2023-12-11T00:56:11.894Z,100648.44
2023-12-11T00:57:13.957Z,100647.72
2023-12-11T00:58:16.054Z,100642.19
2023-12-11T00:59:18.149Z,100639.63
2023-12-11T01:00:20.163Z,100643.91
2023-12-11T01:01:22.161Z,100637.19
2023-12-11T01:02:24.170Z,100646.72
2023-12-11T01:03:28.791Z,100647.00
2023-12-11T01:04:31.015Z,100643.44
2023-12-11T01:05:33.072Z,100645.16
2023-12-11T01:06:35.096Z,100641.72
2023-12-11T01:07:37.088Z,100640.03
2023-12-11T01:08:42.083Z,100639.28
2023-12-11T01:09:44.062Z,100639.88
2023-12-11T01:10:46.190Z,100638.75
2023-12-11T01:11:48.208Z,100638.03
2023-12-11T01:12:50.291Z,100629.94
2023-12-11T01:13:52.274Z,100638.03
2023-12-11T01:14:54.269Z,100637.44
2023-12-11T01:15:56.247Z,100636.34
2023-12-11T01:16:58.272Z,100634.34
2023-12-11T01:18:00.397Z,100641.19
2023-12-11T01:19:02.575Z,100640.81
2023-12-11T01:20:05.398Z,100635.53
2023-12-11T01:21:07.531Z,100633.69
2023-12-11T01:22:09.636Z,100638.50
2023-12-11T01:23:11.737Z,100615.72
2023-12-11T01:24:13.814Z,100615.84
2023-12-11T01:25:15.839Z,100610.72
2023-12-11T01:26:18.205Z,100608.28
2023-12-11T01:27:20.166Z,100610.13
2023-12-11T01:28:22.153Z,100612.09
2023-12-11T01:29:24.205Z,100615.06
2023-12-11T01:30:26.170Z,100621.91
2023-12-11T01:31:28.204Z,100617.91
2023-12-11T01:32:30.261Z,100614.94
2023-12-11T01:33:32.438Z,100607.84
2023-12-11T01:34:34.505Z,100603.03
2023-12-11T01:35:37.523Z,100607.09
2023-12-11T01:36:39.702Z,100606.13
2023-12-11T01:37:43.400Z,100598.16
2023-12-11T01:38:45.824Z,100596.44
2023-12-11T01:39:47.921Z,100597.69
2023-12-11T01:40:49.976Z,100591.31
2023-12-11T01:41:52.137Z,100591.59
2023-12-11T01:43:04.284Z,100591.84
2023-12-11T01:44:12.846Z,100591.97
2023-12-11T01:45:14.883Z,100584.88
2023-12-11T01:46:16.926Z,100585.13
2023-12-11T01:47:18.940Z,100579.16
2023-12-11T01:48:21.089Z,100571.78
2023-12-11T01:49:23.189Z,100569.94
2023-12-11T01:50:25.199Z,100561.69
2023-12-11T01:51:27.444Z,100561.03
2023-12-11T01:52:29.393Z,100555.25
2023-12-11T01:53:31.724Z,100562.09
2023-12-11T01:54:33.772Z,100567.34
2023-12-11T01:55:36.971Z,100559.84
2023-12-11T01:56:38.964Z,100552.47
2023-12-11T01:57:40.948Z,100551.59
2023-12-11T01:58:42.965Z,100550.47
2023-12-11T01:59:49.408Z,100549.38
2023-12-11T02:00:52.465Z,100541.84
2023-12-11T02:01:54.794Z,100565.88
2023-12-11T02:02:57.000Z,100566.72
2023-12-11T02:03:59.219Z,100558.50
2023-12-11T02:05:01.488Z,100574.44
2023-12-11T02:06:03.621Z,100559.94
2023-12-11T02:07:07.583Z,100560.78
2023-12-11T02:08:10.150Z,100562.50
2023-12-11T02:09:12.354Z,100560.53
2023-12-11T02:10:14.329Z,100550.56
2023-12-11T02:11:16.395Z,100550.72
2023-12-11T02:12:18.369Z,100552.16
2023-12-11T02:13:21.615Z,100556.44
2023-12-11T02:14:23.998Z,100547.47
2023-12-11T02:15:38.934Z,100550.75
2023-12-11T02:16:40.887Z,100550.75
2023-12-11T02:17:45.864Z,100548.06
2023-12-11T02:18:48.030Z,100551.47
2023-12-11T02:19:53.073Z,100557.72
2023-12-11T02:20:55.032Z,100554.16
2023-12-11T02:21:57.000Z,100549.63
2023-12-11T02:22:59.293Z,100545.63
2023-12-11T02:24:03.379Z,100535.94
2023-12-11T02:25:06.063Z,100546.16
2023-12-11T02:26:18.486Z,100535.78
2023-12-11T02:27:20.597Z,100542.59
2023-12-11T02:28:22.775Z,100538.66
2023-12-11T02:29:25.387Z,100534.69
2023-12-11T02:30:30.497Z,100538.09
2023-12-11T02:31:32.503Z,100531.56
2023-12-11T02:32:34.538Z,100522.63
2023-12-11T02:33:36.623Z,100531.00
2023-12-11T02:34:38.810Z,100522.16
2023-12-11T02:35:42.649Z,100525.59
2023-12-11T02:36:44.699Z,100520.78
2023-12-11T02:37:46.684Z,100519.47
2023-12-11T02:38:48.728Z,100523.75
2023-12-11T02:39:50.730Z,100521.91
2023-12-11T02:40:52.691Z,100523.47
2023-12-11T02:41:54.680Z,100525.59
2023-12-11T02:42:56.873Z,100524.75
2023-12-11T02:44:00.158Z,100521.75
2023-12-11T02:45:02.257Z,100522.19
2023-12-11T02:46:04.512Z,100511.56
2023-12-11T02:47:06.624Z,100515.69
2023-12-11T02:48:08.816Z,100505.75
2023-12-11T02:49:10.922Z,100514.56
2023-12-11T02:50:12.966Z,100509.03
2023-12-11T02:51:25.248Z,100512.44
2023-12-11T02:52:30.037Z,100506.91
2023-12-11T02:53:32.026Z,100504.75
2023-12-11T02:54:34.126Z,100510.16
2023-12-11T02:55:36.075Z,100503.78
2023-12-11T02:56:43.695Z,100514.00
2023-12-11T02:57:45.648Z,100523.25
2023-12-11T02:58:47.657Z,100516.28
2023-12-11T02:59:49.712Z,100511.16
2023-12-11T03:00:51.732Z,100503.50
2023-12-11T03:01:53.781Z,100497.66
2023-12-11T03:02:55.848Z,100498.50
2023-12-11T03:03:57.873Z,100500.78
2023-12-11T03:05:00.048Z,100504.50
2023-12-11T03:06:04.697Z,100503.50
2023-12-11T03:07:06.778Z,100513.03
2023-12-11T03:08:08.754Z,100503.78
2023-12-11T03:09:10.706Z,100503.66
2023-12-11T03:10:12.719Z,100501.22
2023-12-11T03:11:14.907Z,100500.66
2023-12-11T03:12:16.931Z,100499.66
2023-12-11T03:13:18.919Z,100506.78
2023-12-11T03:14:20.870Z,100504.22
2023-12-11T03:15:22.864Z,100500.94
2023-12-11T03:16:24.831Z,100499.09
2023-12-11T03:17:26.857Z,100500.22
2023-12-11T03:18:29.028Z,100491.69
2023-12-11T03:19:31.213Z,100480.88
2023-12-11T03:20:33.194Z,100475.19
2023-12-11T03:21:35.186Z,100486.28
2023-12-11T03:22:37.176Z,100484.16
2023-12-11T03:23:39.745Z,100484.56
2023-12-11T03:24:41.833Z,100482.56
2023-12-11T03:25:43.831Z,100486.97
2023-12-11T03:26:45.782Z,100484.56
2023-12-11T03:27:47.868Z,100488.28
2023-12-11T03:28:49.877Z,100494.94
2023-12-11T03:29:51.878Z,100493.53
2023-12-11T03:30:53.868Z,100496.09
2023-12-11T03:31:55.838Z,100493.25
2023-12-11T03:32:57.850Z,100490.41
2023-12-11T03:33:59.924Z,100486.16
2023-12-11T03:35:01.992Z,100473.63
2023-12-11T03:36:05.195Z,100471.34
2023-12-11T03:37:11.208Z,100461.97
2023-12-11T03:38:13.202Z,100464.09
2023-12-11T03:39:15.640Z,100467.38
2023-12-11T03:40:17.669Z,100460.53
2023-12-11T03:41:19.808Z,100460.41
2023-12-11T03:42:21.795Z,100453.00
2023-12-11T03:43:24.249Z,100457.84
2023-12-11T03:44:29.280Z,100454.72
2023-12-11T03:45:31.348Z,100449.16
2023-12-11T03:46:33.327Z,100447.16
2023-12-11T03:47:35.492Z,100438.34
2023-12-11T03:48:37.633Z,100442.06
2023-12-11T03:49:39.828Z,100432.94
2023-12-11T03:50:42.198Z,100423.41
2023-12-11T03:51:44.774Z,100425.84
2023-12-11T03:52:46.752Z,100418.28
2023-12-11T03:53:48.710Z,100420.72
2023-12-11T03:54:50.696Z,100415.16
2023-12-11T03:55:54.093Z,100427.13
2023-12-11T03:56:56.053Z,100417.28
2023-12-11T03:57:58.053Z,100417.72
2023-12-11T03:59:00.297Z,100415.59
2023-12-11T04:00:04.739Z,100412.19
2023-12-11T04:01:06.847Z,100405.50
2023-12-11T04:02:09.049Z,100414.59
2023-12-11T04:03:11.120Z,100419.72
2023-12-11T04:04:13.171Z,100411.75
2023-12-11T04:05:15.388Z,100415.88
2023-12-11T04:06:17.443Z,100410.91
2023-12-11T04:07:19.440Z,100413.75
2023-12-11T04:08:21.390Z,100414.75
2023-12-11T04:09:23.416Z,100415.59
2023-12-11T04:10:25.368Z,100421.44
2023-12-11T04:11:27.377Z,100421.13
2023-12-11T04:12:29.335Z,100421.84
2023-12-11T04:13:31.313Z,100415.31
2023-12-11T04:14:33.264Z,100422.69
2023-12-11T04:15:38.177Z,100423.69
2023-12-11T04:16:43.554Z,100419.84
2023-12-11T04:17:45.633Z,100419.28
2023-12-11T04:18:47.774Z,100423.13
2023-12-11T04:19:49.875Z,100420.84
2023-12-11T04:20:51.868Z,100413.75
2023-12-11T04:21:53.889Z,100404.78
2023-12-11T04:22:55.948Z,100404.22
2023-12-11T04:23:57.990Z,100398.53
2023-12-11T04:24:59.984Z,100406.91
2023-12-11T04:26:02.460Z,100399.50
2023-12-11T04:27:04.736Z,100392.25
2023-12-11T04:28:07.021Z,100390.13
2023-12-11T04:29:09.068Z,100387.13
2023-12-11T04:30:11.425Z,100399.50
2023-12-11T04:31:13.573Z,100398.22
2023-12-11T04:32:15.602Z,100404.47
2023-12-11T04:33:17.742Z,100395.50
2023-12-11T04:34:19.864Z,100401.91
2023-12-11T04:35:21.872Z,100395.50
2023-12-11T04:36:23.821Z,100398.78
2023-12-11T04:37:25.781Z,100401.06
2023-12-11T04:38:27.765Z,100401.50
2023-12-11T04:39:29.766Z,100397.50
2023-12-11T04:40:31.922Z,100397.22
2023-12-11T04:41:33.911Z,100396.06
2023-12-11T04:42:35.895Z,100400.50
2023-12-11T04:43:37.937Z,100399.94
2023-12-11T04:44:40.507Z,100399.91
2023-12-11T04:45:42.532Z,100403.03
2023-12-11T04:46:44.572Z,100400.03
2023-12-11T04:47:46.661Z,100406.44
2023-12-11T04:48:48.788Z,100401.19
2023-12-11T04:49:50.997Z,100400.63
2023-12-11T04:50:53.093Z,100393.94
2023-12-11T04:51:55.261Z,100394.50
2023-12-11T04:52:57.212Z,100397.47
2023-12-11T04:53:59.897Z,100408.28
2023-12-11T04:55:02.177Z,100403.59
2023-12-11T04:56:08.205Z,100406.88
2023-12-11T04:57:10.542Z,100399.03
2023-12-11T04:58:12.596Z,100400.44
2023-12-11T04:59:14.594Z,100401.88
2023-12-11T05:00:18.221Z,100383.41
2023-12-11T05:01:20.280Z,100378.84
2023-12-11T05:02:22.401Z,100387.38
2023-12-11T05:03:24.353Z,100384.94
2023-12-11T05:04:27.512Z,100391.03
2023-12-11T05:05:29.516Z,100382.63
2023-12-11T05:06:31.479Z,100391.31
2023-12-11T05:07:33.465Z,100389.47
2023-12-11T05:08:35.452Z,100396.56
2023-12-11T05:09:37.562Z,100389.75
2023-12-11T05:10:39.524Z,100388.91
2023-12-11T05:11:41.624Z,100379.63
2023-12-11T05:12:43.681Z,100383.91
2023-12-11T05:13:45.668Z,100380.06
2023-12-11T05:14:47.675Z,100381.06
2023-12-11T05:15:49.674Z,100380.06
2023-12-11T05:16:51.653Z,100371.38
2023-12-11T05:17:54.150Z,100379.63
2023-12-11T05:18:56.271Z,100377.19
2023-12-11T05:19:58.354Z,100376.09
2023-12-11T05:21:06.767Z,100370.81
2023-12-11T05:22:08.805Z,100372.97
2023-12-11T05:23:10.840Z,100372.09
2023-12-11T05:24:12.969Z,100375.78
2023-12-11T05:25:15.283Z,100365.81
2023-12-11T05:26:20.691Z,100367.94
2023-12-11T05:27:25.486Z,100380.03
2023-12-11T05:28:27.468Z,100370.75
2023-12-11T05:29:29.464Z,100375.31
2023-12-11T05:30:34.295Z,100373.31
2023-12-11T05:31:36.363Z,100368.03
2023-12-11T05:32:40.243Z,100373.88
2023-12-11T05:33:42.492Z,100369.59
2023-12-11T05:34:45.000Z,100371.88
2023-12-11T05:35:47.038Z,100366.19
2023-12-11T05:36:49.131Z,100350.38
2023-12-11T05:37:51.145Z,100366.91
2023-12-11T05:38:53.126Z,100360.94
2023-12-11T05:40:01.751Z,100369.00
2023-12-11T05:41:17.048Z,100373.41
2023-12-11T05:42:19.017Z,100376.13
2023-12-11T05:43:20.996Z,100372.16
2023-12-11T05:44:23.019Z,100377.56
2023-12-11T05:45:24.993Z,100371.31
2023-12-11T05:46:27.074Z,100369.75
2023-12-11T05:47:29.332Z,100373.31
2023-12-11T05:48:31.697Z,100365.22
2023-12-11T05:49:33.885Z,100369.91
2023-12-11T05:50:37.138Z,100369.19
2023-12-11T05:51:40.426Z,100368.03
2023-12-11T05:52:42.555Z,100366.34
2023-12-11T05:53:44.593Z,100366.50
2023-12-11T05:54:46.612Z,100360.38
2023-12-11T05:55:48.565Z,100361.38
2023-12-11T05:56:50.580Z,100362.22
2023-12-11T05:57:52.608Z,100363.22
2023-12-11T05:58:55.776Z,100358.66
2023-12-11T05:59:57.797Z,100369.19
2023-12-11T06:00:59.800Z,100373.31
2023-12-11T06:02:01.915Z,100373.31
2023-12-11T06:03:03.923Z,100369.59
2023-12-11T06:04:06.018Z,100367.03
2023-12-11T06:05:09.666Z,100369.75
2023-12-11T06:06:18.031Z,100360.78
2023-12-11T06:07:19.982Z,100370.75
2023-12-11T06:08:21.937Z,100368.75
2023-12-11T06:09:23.918Z,100370.47
2023-12-11T06:10:25.950Z,100365.59
2023-12-11T06:11:27.992Z,100376.13
2023-12-11T06:12:29.989Z,100368.56
2023-12-11T06:13:35.079Z,100358.59
2023-12-11T06:14:40.779Z,100357.59
2023-12-11T06:15:42.912Z,100356.88
2023-12-11T06:16:47.917Z,100357.44
2023-12-11T06:17:50.045Z,100361.00
2023-12-11T06:18:52.208Z,100348.31
2023-12-11T06:19:54.344Z,100352.72
2023-12-11T06:21:02.572Z,100336.38
2023-12-11T06:22:05.589Z,100324.16
2023-12-11T06:23:07.633Z,100311.47
2023-12-11T06:24:09.625Z,100322.16
2023-12-11T06:25:11.633Z,100327.13
2023-12-11T06:26:43.864Z,100337.50
2023-12-11T06:27:45.957Z,100339.19
2023-12-11T06:28:47.940Z,100344.75
2023-12-11T06:29:49.973Z,100349.88
2023-12-11T06:30:52.495Z,100358.41
2023-12-11T06:31:54.486Z,100365.50
2023-12-11T06:32:56.530Z,100364.75
2023-12-11T06:33:58.698Z,100368.88
2023-12-11T06:35:00.839Z,100383.81
2023-12-11T06:36:02.929Z,100383.25
2023-12-11T06:37:05.157Z,100391.63
2023-12-11T06:38:07.499Z,100405.88
2023-12-11T06:39:09.503Z,100400.16
2023-12-11T06:40:11.775Z,100405.97
2023-12-11T06:41:13.777Z,100399.72
2023-12-11T06:42:15.803Z,100401.88
2023-12-11T06:43:17.781Z,100398.56
2023-12-11T06:44:19.732Z,100406.06
2023-12-11T06:45:21.667Z,100401.91
2023-12-11T06:46:23.717Z,100408.72
2023-12-11T06:47:25.737Z,100408.56
2023-12-11T06:48:27.745Z,100408.41
2023-12-11T06:49:29.855Z,100413.84
2023-12-11T06:50:31.970Z,100412.69
2023-12-11T06:51:36.252Z,100411.69
2023-12-11T06:52:38.304Z,100415.38
2023-12-11T06:53:41.168Z,100421.13
2023-12-11T06:54:43.412Z,100420.66
2023-12-11T06:55:45.362Z,100421.66
2023-12-11T06:56:47.329Z,100427.09
2023-12-11T06:57:49.373Z,100426.94
2023-12-11T06:58:51.386Z,100431.66
2023-12-11T06:59:53.736Z,100433.19
2023-12-11T07:00:55.899Z,100441.03
2023-12-11T07:01:58.046Z,100433.28
2023-12-11T07:03:00.189Z,100427.72
2023-12-11T07:04:02.623Z,100420.44
2023-12-11T07:05:05.190Z,100411.47
2023-12-11T07:06:07.697Z,100398.97
2023-12-11T07:07:10.561Z,100405.94
2023-12-11T07:08:12.621Z,100424.00
2023-12-11T07:09:15.047Z,100420.44
2023-12-11T07:10:17.049Z,100421.16
2023-12-11T07:11:19.162Z,100418.28
2023-12-11T07:12:21.158Z,100421.28
2023-12-11T07:13:23.145Z,100409.00
2023-12-11T07:14:25.435Z,100421.38
2023-12-11T07:15:27.521Z,100422.94
2023-12-11T07:16:29.471Z,100417.91
2023-12-11T07:17:33.618Z,100421.25
2023-12-11T07:18:37.811Z,100411.31
2023-12-11T07:19:39.967Z,100419.16
2023-12-11T07:20:42.731Z,100419.22
2023-12-11T07:21:44.775Z,100405.34
2023-12-11T07:22:47.296Z,100411.00
2023-12-11T07:23:49.786Z,100416.81
2023-12-11T07:24:51.895Z,100417.44
2023-12-11T07:25:54.219Z,100414.56
2023-12-11T07:26:56.311Z,100414.88
2023-12-11T07:27:58.307Z,100412.47
2023-12-11T07:29:01.296Z,100410.63
2023-12-11T07:30:03.328Z,100412.41
2023-12-11T07:31:06.935Z,100416.34
2023-12-11T07:32:09.128Z,100412.84
2023-12-11T07:33:11.221Z,100416.13
2023-12-11T07:34:13.429Z,100420.91
2023-12-11T07:35:15.714Z,100417.81
2023-12-11T07:36:18.261Z,100409.44
2023-12-11T07:37:20.312Z,100413.31
2023-12-11T07:38:24.620Z,100427.50
2023-12-11T07:39:26.568Z,100420.44
2023-12-11T07:40:28.618Z,100429.81
2023-12-11T07:41:33.694Z,100431.03
2023-12-11T07:42:38.618Z,100424.59
2023-12-11T07:43:40.597Z,100419.66
2023-12-11T07:44:42.610Z,100424.00
2023-12-11T07:45:44.625Z,100421.59
2023-12-11T07:46:46.599Z,100414.78
2023-12-11T07:47:48.716Z,100417.19
2023-12-11T07:48:50.832Z,100425.00
2023-12-11T07:49:52.987Z,100429.44
2023-12-11T07:50:54.998Z,100426.03
2023-12-11T07:51:57.029Z,100427.81
2023-12-11T07:52:59.149Z,100426.97
2023-12-11T07:54:01.102Z,100425.72
2023-12-11T07:55:03.179Z,100426.09
2023-12-11T07:56:05.521Z,100419.13
2023-12-11T07:57:07.492Z,100420.31
2023-12-11T07:58:09.576Z,100434.41
2023-12-11T07:59:11.644Z,100430.53
2023-12-11T08:00:15.251Z,100438.66
2023-12-11T08:01:17.439Z,100432.63
2023-12-11T08:02:19.594Z,100443.31
2023-12-11T08:03:21.592Z,100441.28
2023-12-11T08:04:23.695Z,100444.16
2023-12-11T08:05:25.798Z,100448.72
2023-12-11T08:06:28.988Z,100450.59
2023-12-11T08:07:31.348Z,100449.91
2023-12-11T08:08:33.499Z,100450.59
2023-12-11T08:09:40.476Z,100448.72
2023-12-11T08:10:42.687Z,100452.91
2023-12-11T08:11:44.703Z,100450.38
2023-12-11T08:12:55.574Z,100452.59
2023-12-11T08:13:58.879Z,100454.84
2023-12-11T08:15:00.974Z,100456.25
2023-12-11T08:16:03.194Z,100457.94
2023-12-11T08:17:06.058Z,100452.28
2023-12-11T08:18:08.063Z,100450.59
2023-12-11T08:19:10.188Z,100452.84
2023-12-11T08:20:13.650Z,100442.06
2023-12-11T08:21:18.832Z,100448.88
2023-12-11T08:22:20.870Z,100441.28
2023-12-11T08:23:23.106Z,100431.75
2023-12-11T08:24:25.169Z,100438.25
2023-12-11T08:25:27.142Z,100435.06
2023-12-11T08:26:29.143Z,100432.59
2023-12-11T08:27:31.344Z,100440.72
2023-12-11T08:28:33.487Z,100438.00
2023-12-11T08:29:36.334Z,100442.91
2023-12-11T08:30:38.371Z,100433.59
2023-12-11T08:31:40.343Z,100434.59
2023-12-11T08:32:42.531Z,100437.78
2023-12-11T08:33:45.086Z,100425.94
2023-12-11T08:34:47.307Z,100424.91
2023-12-11T08:35:49.326Z,100432.03
2023-12-11T08:36:51.294Z,100426.00
2023-12-11T08:37:53.960Z,100430.94
2023-12-11T08:38:55.936Z,100437.53
2023-12-11T08:39:58.097Z,100438.88
2023-12-11T08:41:00.086Z,100437.47
2023-12-11T08:42:02.053Z,100430.19
2023-12-11T08:43:04.846Z,100432.59
2023-12-11T08:44:07.182Z,100426.84
2023-12-11T08:45:10.003Z,100432.88
2023-12-11T08:46:12.187Z,100424.81
2023-12-11T08:47:14.178Z,100420.78
2023-12-11T08:48:16.229Z,100408.59
2023-12-11T08:49:18.619Z,100408.09
2023-12-11T08:50:20.928Z,100407.88
2023-12-11T08:51:23.061Z,100391.44
2023-12-11T08:52:25.060Z,100390.84
2023-12-11T08:53:27.049Z,100382.22
2023-12-11T08:54:30.704Z,100379.56
2023-12-11T08:55:32.703Z,100365.47
2023-12-11T08:56:34.712Z,100352.88
2023-12-11T08:57:36.857Z,100358.28
2023-12-11T08:58:38.904Z,100354.31
2023-12-11T08:59:40.952Z,100353.56
2023-12-11T09:00:43.461Z,100354.56
2023-12-11T09:01:45.531Z,100339.56
2023-12-11T09:02:47.599Z,100338.56
2023-12-11T09:03:49.945Z,100337.31
2023-12-11T09:04:55.046Z,100324.84
2023-12-11T09:05:57.687Z,100311.50
2023-12-11T09:07:00.430Z,100305.03
2023-12-11T09:08:02.593Z,100299.13
2023-12-11T09:09:07.293Z,100306.69
2023-12-11T09:10:09.833Z,100306.81
2023-12-11T09:11:11.857Z,100304.25
2023-12-11T09:12:23.218Z,100301.41
2023-12-11T09:13:33.178Z,100301.09
2023-12-11T09:14:35.183Z,100297.44
2023-12-11T09:15:37.848Z,100297.34
2023-12-11T09:16:39.922Z,100293.06
2023-12-11T09:17:42.891Z,100288.56
2023-12-11T09:18:45.136Z,100284.94
2023-12-11T09:19:54.300Z,100290.97
2023-12-11T09:20:57.382Z,100288.78
2023-12-11T09:21:59.498Z,100307.22
2023-12-11T09:23:01.487Z,100300.13
2023-12-11T09:24:05.131Z,100296.19
2023-12-11T09:25:07.314Z,100305.31
2023-12-11T09:26:09.308Z,100294.94
2023-12-11T09:27:11.333Z,100305.56
2023-12-11T09:28:13.347Z,100311.88
2023-12-11T09:29:18.078Z,100312.44
2023-12-11T09:30:20.045Z,100323.06
2023-12-11T09:31:22.168Z,100313.91
2023-12-11T09:32:26.628Z,100326.75
2023-12-11T09:33:28.682Z,100325.44
2023-12-11T09:34:30.956Z,100328.03
2023-12-11T09:35:33.154Z,100317.88
2023-12-11T09:36:35.152Z,100317.22
2023-12-11T09:37:37.142Z,100311.25
2023-12-11T09:38:39.150Z,100299.09
2023-12-11T09:39:41.189Z,100303.59
2023-12-11T09:40:43.215Z,100292.25
2023-12-11T09:41:46.033Z,100298.38
2023-12-11T09:42:48.361Z,100295.09
2023-12-11T09:43:52.776Z,100300.56
2023-12-11T09:44:55.818Z,100297.72
2023-12-11T09:45:57.835Z,100293.41
2023-12-11T09:47:09.458Z,100297.97
2023-12-11T09:48:14.781Z,100301.66
2023-12-11T09:49:18.153Z,100301.28
2023-12-11T09:50:22.950Z,100299.97
2023-12-11T09:51:25.267Z,100294.44
2023-12-11T09:52:27.516Z,100287.13
2023-12-11T09:53:31.436Z,100283.59
2023-12-11T09:54:33.427Z,100267.28
2023-12-11T09:55:35.846Z,100266.75
2023-12-11T09:56:37.857Z,100274.38
2023-12-11T09:57:41.088Z,100263.16
2023-12-11T09:58:43.946Z,100263.38
2023-12-11T09:59:47.196Z,100258.59
2023-12-11T10:00:49.386Z,100251.56
2023-12-11T10:01:51.698Z,100257.19
2023-12-11T10:02:54.325Z,100262.81
2023-12-11T10:03:56.353Z,100268.63
2023-12-11T10:05:09.526Z,100268.19
2023-12-11T10:06:11.723Z,100270.47
2023-12-11T10:07:13.837Z,100263.41
2023-12-11T10:08:17.384Z,100268.50
2023-12-11T10:09:40.061Z,100266.25
2023-12-11T10:10:42.058Z,100269.25
2023-12-11T10:11:44.249Z,100270.81
2023-12-11T10:12:46.844Z,100267.53
2023-12-11T10:13:51.133Z,100263.06
2023-12-11T10:15:03.481Z,100260.06
2023-12-11T10:16:06.714Z,100271.03
2023-12-11T10:17:18.106Z,100264.78
2023-12-11T10:18:20.212Z,100267.97
2023-12-11T10:19:34.764Z,100264.75
2023-12-11T10:20:41.046Z,100258.56
2023-12-11T10:21:43.407Z,100263.19
2023-12-11T10:22:49.082Z,100257.78
2023-12-11T10:24:14.712Z,100260.34
2023-12-11T10:25:25.554Z,100258.69
2023-12-11T10:26:27.836Z,100254.19
2023-12-11T10:27:30.090Z,100257.44
2023-12-11T10:28:32.919Z,100246.28
2023-12-11T10:29:34.983Z,100241.59
2023-12-11T10:30:49.565Z,100232.28
2023-12-11T10:31:52.353Z,100232.50
2023-12-11T10:32:55.630Z,100225.03
2023-12-11T10:33:58.732Z,100211.25
2023-12-11T10:35:03.976Z,100206.75
2023-12-11T10:36:14.160Z,100203.19
2023-12-11T10:37:16.518Z,100206.03
2023-12-11T10:38:25.088Z,100208.53
2023-12-11T10:39:27.625Z,100211.16
2023-12-11T10:40:42.105Z,100211.72
2023-12-11T10:41:47.154Z,100210.28
2023-12-11T10:42:57.585Z,100210.59
2023-12-11T10:44:08.927Z,100209.44
2023-12-11T10:45:18.980Z,100216.09
2023-12-11T10:46:20.987Z,100217.56
2023-12-11T10:47:23.362Z,100226.97
2023-12-11T10:48:25.439Z,100209.44
2023-12-11T10:49:27.533Z,100212.50
2023-12-11T10:50:29.624Z,100218.09
2023-12-11T10:51:31.574Z,100213.41
2023-12-11T10:52:34.061Z,100207.19
2023-12-11T10:53:36.140Z,100213.03
2023-12-11T10:54:43.360Z,100205.66
2023-12-11T10:55:45.806Z,100207.06
2023-12-11T10:56:50.409Z,100210.84
2023-12-11T10:57:52.475Z,100207.94
2023-12-11T10:58:54.475Z,100210.19
2023-12-11T10:59:56.658Z,100213.44
2023-12-11T11:01:01.165Z,100206.50
2023-12-11T11:02:03.396Z,100208.88
2023-12-11T11:03:06.290Z,100207.03
2023-12-11T11:04:09.234Z,100198.72
2023-12-11T11:05:12.159Z,100204.72
2023-12-11T11:06:14.379Z,100195.13
2023-12-11T11:07:22.937Z,100195.91
2023-12-11T11:08:32.941Z,100195.09
2023-12-11T11:10:00.481Z,100189.72
2023-12-11T11:11:16.402Z,100194.56
2023-12-11T11:12:35.702Z,100190.09
2023-12-11T11:14:07.140Z,100195.50
2023-12-11T11:15:11.300Z,100195.00
2023-12-11T11:16:13.459Z,100183.41
2023-12-11T11:17:17.773Z,100181.66
2023-12-11T11:18:19.868Z,100187.06
2023-12-11T11:19:22.007Z,100178.56
2023-12-11T11:20:24.469Z,100188.66
2023-12-11T11:21:26.496Z,100179.19
2023-12-11T11:22:35.879Z,100182.81
2023-12-11T11:23:43.775Z,100172.00
2023-12-11T11:24:45.922Z,100182.69
2023-12-11T11:25:54.714Z,100169.03
2023-12-11T11:26:57.900Z,100174.84
2023-12-11T11:28:00.178Z,100172.97
2023-12-11T11:29:05.950Z,100177.28
2023-12-11T11:30:09.083Z,100176.88
2023-12-11T11:31:19.377Z,100171.47
2023-12-11T11:32:56.352Z,100172.03
2023-12-11T11:34:02.637Z,100169.75
2023-12-11T11:35:04.945Z,100162.00
2023-12-11T11:36:06.990Z,100164.22
2023-12-11T11:37:09.680Z,100161.38
2023-12-11T11:38:11.707Z,100160.47
2023-12-11T11:39:13.816Z,100161.06
2023-12-11T11:40:16.127Z,100165.72
2023-12-11T11:41:30.461Z,100168.72
2023-12-11T11:42:34.521Z,100168.69
2023-12-11T11:43:36.509Z,100171.34
2023-12-11T11:44:38.476Z,100164.06
2023-12-11T11:45:40.608Z,100164.78
2023-12-11T11:46:51.435Z,100158.72
2023-12-11T11:47:53.413Z,100163.63
2023-12-11T11:48:55.581Z,100161.06
2023-12-11T11:50:14.564Z,100161.00
2023-12-11T11:51:18.362Z,100161.06
2023-12-11T11:52:29.219Z,100167.44
2023-12-11T11:53:31.330Z,100167.19
2023-12-11T11:54:34.123Z,100175.78
2023-12-11T11:55:39.015Z,100168.69
2023-12-11T11:56:46.393Z,100176.31
2023-12-11T11:57:48.362Z,100174.16
2023-12-11T11:58:50.448Z,100167.19
2023-12-11T11:59:54.477Z,100157.91
2023-12-11T12:01:06.776Z,100157.88
2023-12-11T12:02:08.845Z,100158.28